首页
METAR-TAF:

METAR-TAF

机场 :

石油平台

Ekofisk, 挪威

纬度: 56-33N, 经度: 003-15E, 海拔: 3米

当前天气观测

该预报发布于31分钟前的00:50 UTC
风速17节,风向西南
温度 12°C
湿度 94%
气压 999 hPa
能见度10公里或以上
散云层高于700英尺
多云层高于1200英尺

METAR: ENLE 170050Z 23017KT 9999 SCT007 BKN012 12/11 Q0999 W12/S3

时间: 03:21 (01:21 UTC)

预报

该预报发布于2小时和21分钟前的23:00 UTC
预报有效从17日的 00点(UTC)到 17日的 09点(UTC)
风速25节,风向东南
能見度: 3000
多云层高于400英尺
小雨, 毛毛雨, 轻雾
成为
从 17日的 00点(UTC)到 17日的 01点(UTC)
风速20节,风向西
能见度10公里或以上
少量云层高于800英尺
散云层高于2000英尺
多云层高于5000英尺
短暂存在
从 17日的 00点(UTC)到 17日的 03点(UTC)
多云层高于800英尺

TAF: ENLE 162300Z 1700/1709 13025KT 3000 -RADZ BR BKN004 BECMG 1700/1701 26020KT 9999 NSW FEW008 SCT020 BKN050 TEMPO 1700/1703 BKN008

超过4000个机场的气象观测和天气预报(METAR&TAF报告)。

可查询的气象台以黄色和红色小点在地图上表示。

将鼠标移到小点上方,可查看气象台名称。

然后点击查看天气观测和预报。

如需切换地图:点击带黑十字的绿色按钮放大地图;点击带横线的绿色按钮缩小地图;或者点击绿色箭头查看邻近地区的地图。


METAR-TAF: